Dorp Nikiboko, Netherlands

8:49 AM AST on December 08, 2016 (GMT -0400)
Nikiboko | | Change Station

Elev 33 ft 12.15 °N, 68.27 °W | Updated 1 minute ago

Partly Cloudy
Partly Cloudy
85.2 °F
Feels Like 96 °F
N
5.0
Wind Variable Wind from East
Gusts 13.0 mph

Today
High -- | Low -- °F
--% Chance of Precip.
Yesterday
High -- | Low -- °F
Precip. -- in
Pressure 29.95 in
Visibility 6.2 miles
Clouds Few 1700 ft
Heat Index 96 °F
Dew Point 77 °F
Humidity 77%
Rainfall 0.00 in
Snow Depth Not available.
6:42 AM 6:08 PM
Waxing Gibbous, 63% visible
METAR TNCC 081200Z 10011KT 9999 FEW017 28/23 Q1014 NOSIG
Pressure 29.95 in
Visibility 6.2 miles
Clouds Few 1700 ft
Heat Index 96 °F
Dew Point 77 °F
Humidity 77%
Rainfall 0.00 in
Snow Depth Not available.
6:42 AM 6:08 PM
Waxing Gibbous, 63% visible
METAR TNCC 081200Z 10011KT 9999 FEW017 28/23 Q1014 NOSIG

10-Day Weather Forecast

×

Almanac

Astronomy

Dec. 08, 2016 Rise Set
Actual Time
Civil Twilight
Nautical Twilight
Astronomical Twilight
Moon
Length of Visible Light
Length of Day
Tomorrow will be .
, % of the Moon is Illuminated

Today's Extremes

Country Highs Country Lows

Community

WunderPhotos

Upload Photos

1,956,267 photos uploaded!

WunderBlog® & News

Nearby

Air Quality

  Air Quality AQ Index Pollutant
Not available.

Snow Depth

Station Depth Elevation

Earthquake Activity

City Distance Mag. Time & Date
Minimum magnitude displayed is 2.5.

Coastal Water Temperatures

Place Temperature

Stations

Nearby Weather Stations

Station Location Temp. Windchill Dew Point Humidity Wind Precip. Elev Updated Type